createdAt,value
2018-10-05T00:00:08.466Z,26.77
2018-10-05T00:02:37.319Z,27.43
2018-10-05T00:05:06.381Z,26.90
2018-10-05T00:07:35.264Z,28.27
2018-10-05T00:10:04.208Z,25.30
2018-10-05T00:12:33.246Z,26.83
2018-10-05T00:15:02.146Z,26.30
2018-10-05T00:17:31.076Z,26.40
2018-10-05T00:19:59.971Z,32.40
2018-10-05T00:22:28.903Z,29.87
2018-10-05T00:24:57.827Z,27.63
2018-10-05T00:27:26.746Z,32.27
2018-10-05T00:29:55.620Z,31.13
2018-10-05T00:32:24.590Z,38.23
2018-10-05T00:34:53.533Z,39.13
2018-10-05T00:37:22.469Z,36.33
2018-10-05T00:39:51.427Z,38.27
2018-10-05T00:42:20.291Z,34.67
2018-10-05T00:44:49.234Z,35.57
2018-10-05T00:47:18.199Z,33.80
2018-10-05T00:49:47.050Z,30.87
2018-10-05T00:52:16.017Z,31.80
2018-10-05T00:54:44.919Z,30.47
2018-10-05T00:57:13.905Z,29.40
2018-10-05T00:59:43.199Z,30.10
2018-10-05T01:02:12.144Z,28.33
2018-10-05T01:04:41.034Z,27.37
2018-10-05T01:07:10.377Z,27.40
2018-10-05T01:09:39.296Z,29.30
2018-10-05T01:12:08.182Z,26.93
2018-10-05T01:14:37.069Z,26.83
2018-10-05T01:17:06.051Z,27.57
2018-10-05T01:19:36.530Z,26.63
2018-10-05T01:22:05.492Z,28.87
2018-10-05T01:24:34.429Z,28.07
2018-10-05T01:27:03.320Z,30.33
2018-10-05T01:29:32.216Z,26.13
2018-10-05T01:32:01.133Z,28.50
2018-10-05T01:34:30.025Z,33.60
2018-10-05T01:36:58.951Z,26.57
2018-10-05T01:39:27.856Z,23.93
2018-10-05T01:41:56.752Z,26.47
2018-10-05T01:44:25.696Z,24.90
2018-10-05T01:46:54.576Z,22.67
2018-10-05T01:49:23.478Z,28.60
2018-10-05T01:51:52.551Z,29.90
2018-10-05T01:54:21.560Z,24.17
2018-10-05T01:56:50.418Z,27.27
2018-10-05T01:59:19.377Z,23.10
2018-10-05T02:01:48.314Z,23.87
2018-10-05T02:04:17.232Z,27.33
2018-10-05T02:06:46.114Z,24.40
2018-10-05T02:09:15.012Z,27.00
2018-10-05T02:11:43.892Z,27.33
2018-10-05T02:14:12.788Z,26.57
2018-10-05T02:16:41.700Z,23.87
2018-10-05T02:19:10.570Z,22.50
2018-10-05T02:21:39.479Z,24.37
2018-10-05T02:24:08.457Z,21.10
2018-10-05T02:26:37.346Z,23.27
2018-10-05T02:29:06.388Z,21.70
2018-10-05T02:31:35.330Z,23.87
2018-10-05T02:34:04.227Z,25.80
2018-10-05T02:36:33.095Z,20.10
2018-10-05T02:39:02.001Z,20.00
2018-10-05T02:41:30.895Z,23.03
2018-10-05T02:43:59.764Z,24.03
2018-10-05T02:46:28.728Z,26.83
2018-10-05T02:48:57.567Z,20.47
2018-10-05T02:51:26.658Z,21.80
2018-10-05T02:53:55.604Z,19.77
2018-10-05T02:56:24.543Z,19.20
2018-10-05T02:58:53.433Z,22.80
2018-10-05T03:01:33.215Z,22.47
2018-10-05T03:04:02.171Z,18.60
2018-10-05T03:06:31.135Z,20.40
2018-10-05T03:09:00.055Z,21.00
2018-10-05T03:11:28.972Z,22.23
2018-10-05T03:13:57.895Z,25.00
2018-10-05T03:16:26.828Z,20.20
2018-10-05T03:18:55.688Z,22.67
2018-10-05T03:21:24.828Z,27.97
2018-10-05T03:23:53.728Z,24.03
2018-10-05T03:26:22.629Z,27.27
2018-10-05T03:28:51.547Z,26.43
2018-10-05T03:31:20.411Z,23.37
2018-10-05T03:33:49.295Z,22.73
2018-10-05T03:36:18.217Z,22.00
2018-10-05T03:38:48.128Z,23.07
2018-10-05T03:41:17.020Z,26.13
2018-10-05T03:43:45.962Z,24.93
2018-10-05T03:46:14.858Z,22.67
2018-10-05T03:48:43.759Z,25.10
2018-10-05T03:51:12.666Z,22.83
2018-10-05T03:53:41.559Z,26.80
2018-10-05T03:56:10.454Z,25.53
2018-10-05T03:58:39.353Z,21.73
2018-10-05T04:01:08.295Z,24.67
2018-10-05T04:03:37.229Z,23.37
2018-10-05T04:06:06.182Z,24.77
2018-10-05T04:08:35.015Z,20.60
2018-10-05T04:11:03.933Z,21.63
2018-10-05T04:13:32.784Z,23.67
2018-10-05T04:16:01.745Z,24.73
2018-10-05T04:18:30.665Z,19.73
2018-10-05T04:20:59.547Z,18.53
2018-10-05T04:23:28.541Z,23.30
2018-10-05T04:25:57.482Z,25.43
2018-10-05T04:28:26.392Z,22.90
2018-10-05T04:30:55.406Z,25.70
2018-10-05T04:33:24.300Z,27.03
2018-10-05T04:35:53.223Z,27.37
2018-10-05T04:38:22.642Z,23.97
2018-10-05T04:40:51.505Z,25.63
2018-10-05T04:43:20.376Z,26.90
2018-10-05T04:45:49.305Z,23.67
2018-10-05T04:48:18.228Z,22.53
2018-10-05T04:50:47.110Z,33.27
2018-10-05T04:53:16.085Z,23.10
2018-10-05T04:55:44.937Z,21.03
2018-10-05T04:58:13.826Z,23.13
2018-10-05T05:00:42.859Z,28.17
2018-10-05T05:03:11.864Z,27.20
2018-10-05T05:05:40.763Z,26.97
2018-10-05T05:08:09.689Z,29.13
2018-10-05T05:10:38.790Z,35.03
2018-10-05T05:13:07.772Z,35.73
2018-10-05T05:15:36.744Z,34.43
2018-10-05T05:18:05.870Z,32.63
2018-10-05T05:20:34.858Z,27.73
2018-10-05T05:23:04.307Z,22.20
2018-10-05T05:25:33.429Z,19.53
2018-10-05T05:28:02.403Z,22.27
2018-10-05T05:30:31.384Z,23.73
2018-10-05T05:33:00.302Z,22.23
2018-10-05T05:35:29.276Z,29.37
2018-10-05T05:37:58.124Z,21.77
2018-10-05T05:40:27.016Z,23.27
2018-10-05T05:42:56.104Z,25.10
2018-10-05T05:45:25.197Z,21.43
2018-10-05T05:47:54.096Z,25.73
2018-10-05T05:50:23.080Z,19.83
2018-10-05T05:52:53.608Z,19.67
2018-10-05T05:55:22.501Z,22.60
2018-10-05T05:57:51.438Z,27.77
2018-10-05T06:00:20.367Z,34.97
2018-10-05T06:02:49.281Z,34.60
2018-10-05T06:05:18.305Z,34.97
2018-10-05T06:07:47.229Z,34.40
2018-10-05T06:10:16.131Z,33.83
2018-10-05T06:12:45.067Z,25.83
2018-10-05T06:15:14.055Z,24.27
2018-10-05T06:17:42.969Z,30.53
2018-10-05T06:20:11.922Z,24.10
2018-10-05T06:22:41.150Z,30.43
2018-10-05T06:25:10.089Z,21.70
2018-10-05T06:27:39.112Z,24.33
2018-10-05T06:30:08.151Z,38.60
2018-10-05T06:32:37.088Z,23.17
2018-10-05T06:35:06.000Z,22.37
2018-10-05T06:37:34.981Z,21.63
2018-10-05T06:40:04.077Z,27.63
2018-10-05T06:42:33.156Z,25.17
2018-10-05T06:45:02.832Z,23.40
2018-10-05T06:47:31.776Z,21.73
2018-10-05T06:50:00.813Z,23.13
2018-10-05T06:52:29.742Z,22.77
2018-10-05T06:54:59.367Z,27.23
2018-10-05T06:57:28.465Z,23.43
2018-10-05T06:59:57.517Z,21.33
2018-10-05T07:02:26.445Z,23.70
2018-10-05T07:04:55.459Z,20.10
2018-10-05T07:07:24.473Z,22.13
2018-10-05T07:09:55.011Z,21.77
2018-10-05T07:12:24.773Z,18.83
2018-10-05T07:14:54.490Z,28.07
2018-10-05T07:17:23.548Z,31.87
2018-10-05T07:19:52.467Z,31.27
2018-10-05T07:22:21.449Z,33.57
2018-10-05T07:24:50.587Z,25.00
2018-10-05T07:27:20.061Z,27.97
2018-10-05T07:29:50.033Z,31.47
2018-10-05T07:32:18.970Z,32.40
2018-10-05T07:34:48.122Z,28.57
2018-10-05T07:37:17.098Z,29.10
2018-10-05T07:39:46.058Z,30.67
2018-10-05T07:42:15.168Z,38.83
2018-10-05T07:44:44.249Z,31.77
2018-10-05T07:47:13.164Z,38.53
2018-10-05T07:49:42.152Z,32.27
2018-10-05T07:52:11.408Z,32.77
2018-10-05T07:54:41.855Z,26.53
2018-10-05T07:57:10.849Z,27.03
2018-10-05T07:59:39.774Z,20.07
2018-10-05T08:02:08.930Z,18.00
2018-10-05T08:04:38.020Z,23.13
2018-10-05T08:07:07.021Z,26.63
2018-10-05T08:09:36.195Z,21.40
2018-10-05T08:12:05.281Z,31.03
2018-10-05T08:14:34.827Z,23.80
2018-10-05T08:17:03.808Z,28.97
2018-10-05T08:19:32.820Z,28.60
2018-10-05T08:22:02.009Z,25.57
2018-10-05T08:24:30.961Z,25.47
2018-10-05T08:27:00.129Z,22.47
2018-10-05T08:29:29.095Z,23.40
2018-10-05T08:31:59.496Z,26.40
2018-10-05T08:34:28.951Z,22.63
2018-10-05T08:36:58.845Z,20.77
2018-10-05T08:39:27.875Z,18.90
2018-10-05T08:41:56.864Z,23.87
2018-10-05T08:44:25.800Z,19.20
2018-10-05T08:46:54.868Z,25.43
2018-10-05T08:49:23.796Z,19.83
2018-10-05T08:51:52.889Z,19.67
2018-10-05T08:54:21.844Z,22.20
2018-10-05T08:56:51.412Z,22.77
2018-10-05T08:59:20.408Z,22.97
2018-10-05T09:01:49.453Z,23.87
2018-10-05T09:04:19.058Z,21.87
2018-10-05T09:06:48.102Z,31.73
2018-10-05T09:09:16.964Z,34.53
2018-10-05T09:11:45.957Z,26.47
2018-10-05T09:14:14.901Z,32.83
2018-10-05T09:16:43.906Z,29.37
2018-10-05T09:19:12.830Z,35.20
2018-10-05T09:21:41.756Z,35.17
2018-10-05T09:24:10.846Z,28.50
2018-10-05T09:26:39.784Z,24.50
2018-10-05T09:29:08.720Z,20.27
2018-10-05T09:31:37.673Z,27.60
2018-10-05T09:34:06.568Z,21.53
2018-10-05T09:36:35.925Z,24.07
2018-10-05T09:39:06.490Z,20.87
2018-10-05T09:41:35.993Z,22.67
2018-10-05T09:44:04.938Z,22.37
2018-10-05T09:46:33.896Z,25.90
2018-10-05T09:49:02.907Z,27.67
2018-10-05T09:51:31.848Z,31.97
2018-10-05T09:54:00.744Z,31.83
2018-10-05T09:56:29.673Z,27.40
2018-10-05T09:58:58.637Z,23.67
2018-10-05T10:01:32.628Z,18.27
2018-10-05T10:04:01.714Z,22.20
2018-10-05T10:06:30.596Z,21.97
2018-10-05T10:08:59.489Z,25.97
2018-10-05T10:11:28.440Z,23.33
2018-10-05T10:13:57.541Z,19.97
2018-10-05T10:16:27.660Z,25.30
2018-10-05T10:18:56.978Z,22.67
2018-10-05T10:21:25.909Z,21.97
2018-10-05T10:23:54.869Z,23.93
2018-10-05T10:26:23.856Z,24.30
2018-10-05T10:28:53.351Z,23.80
2018-10-05T10:31:22.439Z,23.13
2018-10-05T10:33:51.468Z,24.47
2018-10-05T10:36:20.453Z,29.10
2018-10-05T10:38:49.801Z,25.47
2018-10-05T10:41:18.715Z,25.27
2018-10-05T10:43:47.765Z,32.77
2018-10-05T10:46:16.695Z,25.23
2018-10-05T10:48:45.732Z,20.73
2018-10-05T10:51:14.620Z,23.53
2018-10-05T10:53:43.540Z,23.70
2018-10-05T10:56:12.721Z,23.67
2018-10-05T10:58:41.809Z,24.13
2018-10-05T11:01:10.788Z,22.97
2018-10-05T11:03:41.455Z,19.97
2018-10-05T11:06:10.413Z,26.50
2018-10-05T11:08:39.391Z,24.87
2018-10-05T11:11:08.426Z,22.83
2018-10-05T11:13:37.389Z,18.53
2018-10-05T11:16:06.375Z,23.60
2018-10-05T11:18:35.359Z,20.67
2018-10-05T11:21:04.424Z,23.23
2018-10-05T11:23:33.334Z,21.07
2018-10-05T11:26:02.924Z,23.33
2018-10-05T11:28:31.838Z,21.23
2018-10-05T11:31:00.754Z,20.60
2018-10-05T11:33:29.741Z,22.27
2018-10-05T11:35:58.669Z,20.27
2018-10-05T11:38:27.593Z,26.77
2018-10-05T11:40:56.690Z,23.47
2018-10-05T11:43:25.616Z,26.37
2018-10-05T11:45:54.598Z,24.63
2018-10-05T11:48:23.530Z,24.83
2018-10-05T11:50:52.522Z,25.90
2018-10-05T11:53:21.929Z,22.00
2018-10-05T11:55:50.949Z,24.97
2018-10-05T11:58:20.004Z,23.67
2018-10-05T12:00:49.036Z,28.43
2018-10-05T12:03:18.129Z,21.33
2018-10-05T12:05:47.140Z,20.90
2018-10-05T12:08:16.068Z,20.73
2018-10-05T12:10:44.994Z,25.17
2018-10-05T12:13:13.968Z,22.50
2018-10-05T12:15:43.055Z,22.10
2018-10-05T12:18:12.048Z,19.50
2018-10-05T12:20:41.122Z,26.20
2018-10-05T12:23:10.195Z,25.50
2018-10-05T12:25:40.037Z,21.67
2018-10-05T12:28:09.098Z,23.10
2018-10-05T12:30:38.659Z,21.30
2018-10-05T12:33:08.061Z,25.40
2018-10-05T12:35:37.027Z,20.90
2018-10-05T12:38:06.320Z,19.70
2018-10-05T12:40:35.295Z,18.50
2018-10-05T12:43:04.380Z,21.67
2018-10-05T12:45:33.448Z,20.80
2018-10-05T12:48:02.466Z,20.57
2018-10-05T12:50:32.121Z,22.47
2018-10-05T12:53:01.226Z,26.57
2018-10-05T12:55:30.233Z,21.17
2018-10-05T12:57:59.248Z,25.27
2018-10-05T13:00:28.335Z,23.17
2018-10-05T13:02:57.383Z,21.27
2018-10-05T13:05:26.397Z,22.70
2018-10-05T13:07:55.388Z,21.60
2018-10-05T13:10:24.376Z,21.47
2018-10-05T13:12:53.466Z,21.13
2018-10-05T13:15:22.400Z,26.63
2018-10-05T13:17:51.479Z,23.50
2018-10-05T13:20:20.608Z,19.77
2018-10-05T13:22:50.365Z,21.37
2018-10-05T13:25:19.293Z,21.63
2018-10-05T13:27:48.345Z,18.60
2018-10-05T13:30:18.339Z,19.60
2018-10-05T13:32:47.345Z,26.77
2018-10-05T13:35:16.393Z,23.60
2018-10-05T13:37:45.363Z,23.10
2018-10-05T13:40:14.381Z,22.83
2018-10-05T13:42:43.471Z,26.30
2018-10-05T13:45:12.853Z,22.43
2018-10-05T13:47:42.453Z,21.70
2018-10-05T13:50:12.967Z,22.23
2018-10-05T13:52:41.936Z,23.40
2018-10-05T13:55:10.933Z,22.83
2018-10-05T13:57:39.901Z,21.23
2018-10-05T14:00:09.000Z,21.60
2018-10-05T14:02:37.959Z,22.30
2018-10-05T14:05:06.956Z,20.20
2018-10-05T14:07:36.047Z,19.27
2018-10-05T14:10:05.453Z,21.40
2018-10-05T14:12:34.433Z,23.37
2018-10-05T14:15:03.440Z,22.40
2018-10-05T14:17:32.441Z,29.17
2018-10-05T14:20:01.464Z,26.93
2018-10-05T14:22:30.408Z,22.30
2018-10-05T14:24:59.486Z,22.83
2018-10-05T14:27:28.506Z,25.13
2018-10-05T14:29:58.135Z,23.73
2018-10-05T14:32:27.074Z,26.10
2018-10-05T14:34:56.113Z,24.63
2018-10-05T14:37:25.017Z,18.97
2018-10-05T14:39:53.945Z,17.13
2018-10-05T14:42:22.945Z,22.00
2018-10-05T14:44:51.914Z,23.10
2018-10-05T14:47:20.932Z,20.47
2018-10-05T14:49:50.023Z,17.97
2018-10-05T14:52:23.957Z,17.33
2018-10-05T14:54:53.867Z,19.60
2018-10-05T14:57:23.108Z,17.70
2018-10-05T14:59:53.298Z,19.83
2018-10-05T15:02:23.526Z,19.80
2018-10-05T15:04:52.558Z,16.93
2018-10-05T15:07:21.659Z,20.83
2018-10-05T15:09:50.759Z,15.57
2018-10-05T15:12:19.751Z,18.57
2018-10-05T15:14:48.751Z,18.57
2018-10-05T15:17:17.684Z,21.40
2018-10-05T15:19:46.632Z,18.70
2018-10-05T15:22:15.573Z,15.20
2018-10-05T15:24:44.794Z,15.70
2018-10-05T15:27:13.716Z,16.30
2018-10-05T15:29:42.600Z,19.50
2018-10-05T15:32:11.646Z,14.67
2018-10-05T15:34:40.650Z,19.47
2018-10-05T15:37:09.679Z,19.93
2018-10-05T15:39:38.735Z,29.20
2018-10-05T15:42:07.705Z,37.43
2018-10-05T15:44:36.684Z,38.77
2018-10-05T15:47:07.039Z,42.27
2018-10-05T15:49:36.711Z,39.17
2018-10-05T15:52:05.848Z,34.10
2018-10-05T15:54:34.796Z,32.20
2018-10-05T15:57:03.834Z,31.27
2018-10-05T15:59:33.639Z,42.23
2018-10-05T16:02:02.695Z,37.10
2018-10-05T16:04:31.715Z,33.87
2018-10-05T16:07:00.669Z,33.33
2018-10-05T16:09:29.877Z,30.67
2018-10-05T16:11:58.772Z,30.67
2018-10-05T16:14:27.848Z,24.57
2018-10-05T16:16:56.754Z,24.67
2018-10-05T16:19:25.661Z,22.90
2018-10-05T16:21:54.653Z,25.77
2018-10-05T16:24:54.083Z,24.47
2018-10-05T16:27:23.732Z,21.33
2018-10-05T16:29:53.460Z,26.80
2018-10-05T16:32:22.491Z,26.40
2018-10-05T16:34:51.384Z,31.60
2018-10-05T16:37:20.372Z,24.63
2018-10-05T16:39:49.332Z,22.53
2018-10-05T16:42:18.229Z,20.57
2018-10-05T16:44:47.263Z,24.63
2018-10-05T16:47:16.254Z,27.07
2018-10-05T16:49:45.164Z,31.07
2018-10-05T16:52:14.104Z,33.80
2018-10-05T16:54:43.117Z,43.73
2018-10-05T16:57:12.162Z,58.00
2018-10-05T16:59:41.169Z,56.53
2018-10-05T17:02:10.209Z,56.50
2018-10-05T17:04:39.212Z,67.50
2018-10-05T17:07:08.120Z,66.23
2018-10-05T17:09:37.041Z,63.60
2018-10-05T17:12:06.005Z,66.43
2018-10-05T17:14:34.931Z,80.97
2018-10-05T17:17:03.861Z,80.60
2018-10-05T17:19:32.912Z,79.67
2018-10-05T17:22:01.819Z,70.80
2018-10-05T17:24:30.815Z,60.27
2018-10-05T17:26:59.773Z,49.83
2018-10-05T17:29:28.864Z,45.33
2018-10-05T17:31:57.773Z,42.73
2018-10-05T17:34:26.789Z,50.07
2018-10-05T17:36:56.623Z,50.13
2018-10-05T17:39:25.518Z,53.40
2018-10-05T17:41:54.483Z,45.27
2018-10-05T17:44:24.343Z,48.73
2018-10-05T17:46:53.600Z,53.00
2018-10-05T17:49:22.542Z,44.07
2018-10-05T17:51:51.527Z,47.83
2018-10-05T17:54:20.609Z,50.63
2018-10-05T17:56:50.215Z,50.60
2018-10-05T17:59:19.233Z,53.13
2018-10-05T18:01:48.256Z,52.67
2018-10-05T18:04:17.200Z,63.03
2018-10-05T18:06:46.312Z,70.50
2018-10-05T18:09:15.483Z,66.60
2018-10-05T18:11:44.414Z,70.27
2018-10-05T18:14:13.384Z,71.00
2018-10-05T18:16:42.251Z,64.27
2018-10-05T18:19:11.173Z,67.80
2018-10-05T18:21:40.559Z,67.97
2018-10-05T18:24:09.461Z,63.80
2018-10-05T18:26:38.402Z,61.40
2018-10-05T18:29:07.716Z,53.47
2018-10-05T18:31:37.733Z,57.93
2018-10-05T18:34:06.856Z,63.23
2018-10-05T18:36:36.567Z,67.67
2018-10-05T18:39:08.026Z,69.13
2018-10-05T18:41:37.108Z,70.10
2018-10-05T18:44:06.267Z,60.63
2018-10-05T18:46:35.330Z,68.03
2018-10-05T18:49:05.282Z,56.33
2018-10-05T18:51:34.919Z,51.07
2018-10-05T18:54:04.825Z,56.20
2018-10-05T18:56:45.117Z,52.73
2018-10-05T18:59:15.338Z,48.83
2018-10-05T19:01:44.537Z,45.53
2018-10-05T19:04:13.680Z,47.30
2018-10-05T19:06:42.730Z,48.33
2018-10-05T19:09:11.790Z,51.17
2018-10-05T19:11:40.812Z,49.93
2018-10-05T19:14:10.639Z,50.17
2018-10-05T19:16:39.685Z,60.33
2018-10-05T19:19:08.786Z,66.23
2018-10-05T19:21:37.993Z,68.77
2018-10-05T19:24:07.037Z,72.40
2018-10-05T19:26:36.246Z,72.13
2018-10-05T19:29:05.092Z,74.20
2018-10-05T19:31:34.042Z,68.17
2018-10-05T19:34:03.112Z,61.83
2018-10-05T19:36:32.348Z,62.77
2018-10-05T19:39:01.484Z,57.73
2018-10-05T19:41:31.562Z,55.10
2018-10-05T19:44:00.645Z,54.73
2018-10-05T19:46:29.689Z,57.20
2018-10-05T19:48:58.631Z,55.30
2018-10-05T19:51:27.618Z,61.20
2018-10-05T19:53:56.753Z,59.97
2018-10-05T19:56:25.920Z,55.07
2018-10-05T19:58:54.959Z,46.73
2018-10-05T20:01:25.692Z,49.30
2018-10-05T20:03:54.702Z,46.40
2018-10-05T20:06:23.785Z,42.03
2018-10-05T20:08:52.835Z,45.97
2018-10-05T20:11:21.955Z,50.03
2018-10-05T20:13:51.020Z,56.97
2018-10-05T20:16:20.054Z,63.20
2018-10-05T20:18:49.109Z,57.17
2018-10-05T20:21:18.103Z,54.43
2018-10-05T20:23:47.174Z,56.77
2018-10-05T20:26:16.297Z,57.07
2018-10-05T20:28:45.328Z,55.90
2018-10-05T20:31:14.421Z,68.80
2018-10-05T20:33:44.366Z,61.97
2018-10-05T20:36:13.675Z,62.73
2018-10-05T20:38:42.650Z,55.50
2018-10-05T20:41:11.667Z,53.53
2018-10-05T20:43:40.745Z,51.30
2018-10-05T20:46:09.880Z,50.97
2018-10-05T20:48:38.937Z,50.73
2018-10-05T20:51:08.062Z,50.60
2018-10-05T20:53:37.109Z,59.50
2018-10-05T20:56:06.263Z,56.40
2018-10-05T20:58:35.283Z,61.00
2018-10-05T21:01:05.040Z,54.23
2018-10-05T21:03:34.095Z,46.03
2018-10-05T21:06:03.154Z,48.00
2018-10-05T21:08:32.163Z,43.63
2018-10-05T21:11:01.456Z,46.10
2018-10-05T21:13:30.481Z,42.80
2018-10-05T21:15:59.498Z,35.97
2018-10-05T21:18:28.592Z,38.80
2018-10-05T21:20:57.696Z,32.87
2018-10-05T21:23:26.637Z,37.13
2018-10-05T21:25:55.726Z,35.07
2018-10-05T21:28:24.722Z,35.47
2018-10-05T21:30:53.863Z,34.20
2018-10-05T21:33:22.944Z,32.73
2018-10-05T21:35:51.836Z,32.43
2018-10-05T21:38:21.305Z,32.67
2018-10-05T21:40:50.341Z,34.20
2018-10-05T21:43:21.152Z,35.73
2018-10-05T21:45:50.127Z,37.30
2018-10-05T21:48:19.108Z,33.00
2018-10-05T21:50:48.069Z,32.17
2018-10-05T21:53:16.966Z,37.47
2018-10-05T21:55:45.935Z,32.33
2018-10-05T21:58:14.914Z,30.53
2018-10-05T22:00:43.950Z,31.90
2018-10-05T22:03:13.072Z,35.57
2018-10-05T22:05:41.991Z,33.03
2018-10-05T22:08:10.955Z,28.27
2018-10-05T22:10:39.939Z,30.63
2018-10-05T22:13:08.908Z,29.87
2018-10-05T22:15:37.865Z,30.37
2018-10-05T22:18:06.887Z,32.87
2018-10-05T22:20:35.882Z,29.70
2018-10-05T22:23:05.431Z,31.80
2018-10-05T22:25:34.401Z,31.33
2018-10-05T22:28:03.362Z,30.43
2018-10-05T22:30:32.261Z,30.47
2018-10-05T22:33:01.226Z,31.73
2018-10-05T22:35:30.224Z,32.90
2018-10-05T22:37:59.145Z,34.53
2018-10-05T22:40:28.121Z,32.03
2018-10-05T22:42:57.149Z,35.40
2018-10-05T22:45:26.143Z,32.47
2018-10-05T22:47:55.096Z,34.00
2018-10-05T22:50:24.017Z,32.20
2018-10-05T22:52:52.957Z,34.27
2018-10-05T22:55:21.927Z,37.67
2018-10-05T22:57:50.849Z,31.60
2018-10-05T23:00:19.832Z,33.37
2018-10-05T23:02:48.835Z,30.33
2018-10-05T23:05:17.762Z,36.70
2018-10-05T23:07:46.720Z,33.83
2018-10-05T23:10:15.760Z,31.73
2018-10-05T23:12:44.680Z,32.93
2018-10-05T23:15:14.295Z,35.07
2018-10-05T23:17:43.703Z,31.40
2018-10-05T23:20:12.622Z,32.03
2018-10-05T23:22:42.630Z,31.40
2018-10-05T23:25:12.051Z,30.60
2018-10-05T23:27:40.984Z,29.33
2018-10-05T23:30:09.912Z,34.40
2018-10-05T23:32:38.889Z,30.80
2018-10-05T23:35:07.791Z,31.03
2018-10-05T23:37:36.720Z,34.10
2018-10-05T23:40:06.495Z,31.77
2018-10-05T23:42:35.433Z,29.20
2018-10-05T23:45:04.913Z,33.33
2018-10-05T23:47:35.488Z,31.17
2018-10-05T23:50:04.590Z,30.67
2018-10-05T23:52:40.900Z,31.13
2018-10-05T23:55:09.955Z,35.57
2018-10-05T23:57:39.697Z,28.80
